createdAt,value
2022-09-12T00:00:42.083Z,12.36
2022-09-12T00:01:42.132Z,12.35
2022-09-12T00:02:42.173Z,12.29
2022-09-12T00:03:42.210Z,12.3
2022-09-12T00:04:42.256Z,12.24
2022-09-12T00:05:42.305Z,12.24
2022-09-12T00:06:42.347Z,12.25
2022-09-12T00:07:42.394Z,12.25
2022-09-12T00:08:42.441Z,12.25
2022-09-12T00:09:42.490Z,12.18
2022-09-12T00:10:42.534Z,12.17
2022-09-12T00:11:42.578Z,12.17
2022-09-12T00:12:42.621Z,12.1
2022-09-12T00:13:42.662Z,12.09
2022-09-12T00:14:42.710Z,12.08
2022-09-12T00:15:42.750Z,12.01
2022-09-12T00:16:42.838Z,12
2022-09-12T00:17:42.837Z,11.96
2022-09-12T00:18:42.904Z,11.97
2022-09-12T00:19:42.930Z,11.98
2022-09-12T00:20:42.974Z,11.98
2022-09-12T00:21:43.018Z,11.91
2022-09-12T00:22:43.069Z,11.91
2022-09-12T00:23:43.123Z,11.92
2022-09-12T00:24:43.163Z,11.84
2022-09-12T00:25:43.210Z,11.85
2022-09-12T00:26:43.257Z,11.85
2022-09-12T00:27:43.302Z,11.86
2022-09-12T00:28:43.338Z,11.77
2022-09-12T00:29:43.388Z,11.77
2022-09-12T00:30:43.427Z,11.7
2022-09-12T00:31:43.494Z,11.7
2022-09-12T00:32:43.519Z,11.69
2022-09-12T00:33:43.567Z,11.7
2022-09-12T00:34:43.610Z,11.64
2022-09-12T00:35:43.651Z,11.66
2022-09-12T00:36:43.694Z,11.66
2022-09-12T00:37:43.734Z,11.59
2022-09-12T00:38:43.842Z,11.59
2022-09-12T00:39:43.897Z,11.61
2022-09-12T00:40:43.859Z,11.63
2022-09-12T00:41:43.896Z,11.63
2022-09-12T00:42:43.944Z,11.53
2022-09-12T00:43:43.989Z,11.51
2022-09-12T00:44:44.033Z,11.51
2022-09-12T00:45:44.135Z,11.5
2022-09-12T00:46:44.118Z,11.44
2022-09-12T00:47:44.159Z,11.45
2022-09-12T00:48:44.267Z,11.44
2022-09-12T00:49:44.248Z,11.44
2022-09-12T00:50:44.309Z,11.44
2022-09-12T00:51:44.342Z,11.44
2022-09-12T00:52:44.382Z,11.44
2022-09-12T00:53:44.429Z,11.45
2022-09-12T00:54:44.467Z,11.45
2022-09-12T00:55:44.515Z,11.46
2022-09-12T00:56:44.559Z,11.49
2022-09-12T00:57:44.605Z,11.51
2022-09-12T00:58:44.654Z,11.45
2022-09-12T00:59:44.696Z,11.47
2022-09-12T01:00:44.790Z,11.53
2022-09-12T01:01:44.879Z,11.46
2022-09-12T01:02:44.818Z,11.46
2022-09-12T01:03:44.865Z,11.44
2022-09-12T01:04:44.913Z,11.42
2022-09-12T01:05:44.990Z,11.36
2022-09-12T01:06:45.000Z,11.35
2022-09-12T01:07:45.047Z,11.29
2022-09-12T01:08:45.197Z,11.28
2022-09-12T01:09:45.124Z,11.29
2022-09-12T01:10:45.173Z,11.28
2022-09-12T01:11:45.212Z,11.28
2022-09-12T01:12:45.259Z,11.29
2022-09-12T01:13:45.301Z,11.29
2022-09-12T01:14:45.347Z,11.29
2022-09-12T01:15:45.391Z,11.23
2022-09-12T01:16:45.524Z,11.22
2022-09-12T01:17:45.473Z,11.22
2022-09-12T01:18:45.607Z,11.22
2022-09-12T01:19:45.566Z,11.22
2022-09-12T01:20:45.611Z,11.22
2022-09-12T01:21:45.653Z,11.22
2022-09-12T01:22:45.700Z,11.21
2022-09-12T01:23:45.744Z,11.2
2022-09-12T01:24:45.779Z,11.13
2022-09-12T01:25:45.824Z,11.12
2022-09-12T01:26:45.869Z,11.11
2022-09-12T01:27:45.911Z,11.11
2022-09-12T01:28:46.072Z,11.11
2022-09-12T01:29:45.994Z,11.1
2022-09-12T01:30:46.039Z,11.03
2022-09-12T01:31:46.125Z,11.05
2022-09-12T01:32:46.139Z,11.05
2022-09-12T01:33:46.173Z,11.04
2022-09-12T01:34:46.266Z,11.03
2022-09-12T01:35:46.273Z,10.96
2022-09-12T01:36:46.318Z,10.96
2022-09-12T01:37:46.368Z,10.96
2022-09-12T01:38:46.540Z,10.95
2022-09-12T01:39:46.498Z,10.96
2022-09-12T01:40:46.505Z,10.9
2022-09-12T01:41:46.558Z,10.9
2022-09-12T01:42:46.594Z,10.9
2022-09-12T01:43:46.646Z,10.91
2022-09-12T01:44:46.693Z,10.92
2022-09-12T01:45:46.841Z,10.85
2022-09-12T01:46:46.779Z,10.85
2022-09-12T01:47:46.816Z,10.84
2022-09-12T01:48:46.997Z,10.84
2022-09-12T01:49:46.906Z,10.84
2022-09-12T01:50:46.952Z,10.84
2022-09-12T01:51:46.988Z,10.83
2022-09-12T01:52:47.032Z,10.76
2022-09-12T01:53:47.072Z,10.76
2022-09-12T01:54:47.117Z,10.76
2022-09-12T01:55:47.161Z,10.78
2022-09-12T01:56:47.207Z,10.78
2022-09-12T01:57:47.254Z,10.77
2022-09-12T01:58:47.309Z,10.78
2022-09-12T01:59:47.341Z,10.77
2022-09-12T02:00:47.484Z,10.76
2022-09-12T02:01:47.508Z,10.69
2022-09-12T02:02:47.464Z,10.68
2022-09-12T02:03:47.508Z,10.68
2022-09-12T02:04:47.550Z,10.67
2022-09-12T02:05:47.595Z,10.67
2022-09-12T02:06:47.635Z,10.67
2022-09-12T02:07:47.685Z,10.66
2022-09-12T02:08:47.726Z,10.67
2022-09-12T02:09:47.773Z,10.66
2022-09-12T02:10:47.815Z,10.66
2022-09-12T02:11:47.863Z,10.6
2022-09-12T02:12:47.902Z,10.61
2022-09-12T02:13:47.950Z,10.61
2022-09-12T02:14:47.994Z,10.61
2022-09-12T02:15:48.043Z,10.61
2022-09-12T02:16:48.135Z,10.62
2022-09-12T02:17:48.123Z,10.61
2022-09-12T02:18:48.164Z,10.61
2022-09-12T02:19:48.213Z,10.54
2022-09-12T02:20:49.107Z,10.55
2022-09-12T02:21:48.307Z,10.55
2022-09-12T02:22:48.353Z,10.54
2022-09-12T02:23:48.398Z,10.53
2022-09-12T02:24:48.439Z,10.54
2022-09-12T02:25:48.489Z,10.54
2022-09-12T02:26:48.525Z,10.48
2022-09-12T02:27:48.564Z,10.48
2022-09-12T02:28:48.609Z,10.48
2022-09-12T02:29:48.649Z,10.48
2022-09-12T02:30:48.789Z,10.48
2022-09-12T02:31:48.748Z,10.48
2022-09-12T02:32:48.789Z,10.48
2022-09-12T02:33:48.831Z,10.47
2022-09-12T02:34:48.879Z,10.46
2022-09-12T02:35:48.923Z,10.46
2022-09-12T02:36:48.967Z,10.39
2022-09-12T02:37:49.009Z,10.39
2022-09-12T02:38:49.053Z,10.39
2022-09-12T02:39:49.112Z,10.38
2022-09-12T02:40:49.148Z,10.39
2022-09-12T02:41:49.192Z,10.39
2022-09-12T02:42:49.232Z,10.39
2022-09-12T02:43:49.283Z,10.38
2022-09-12T02:44:49.326Z,10.38
2022-09-12T02:45:49.465Z,10.3
2022-09-12T02:46:49.410Z,10.31
2022-09-12T02:47:49.456Z,10.3
2022-09-12T02:48:49.501Z,10.31
2022-09-12T02:49:49.544Z,10.31
2022-09-12T02:50:49.585Z,10.31
2022-09-12T02:51:49.628Z,10.32
2022-09-12T02:52:49.676Z,10.33
2022-09-12T02:53:49.727Z,10.35
2022-09-12T02:54:49.767Z,10.36
2022-09-12T02:55:49.812Z,10.31
2022-09-12T02:56:49.859Z,10.32
2022-09-12T02:57:49.906Z,10.33
2022-09-12T02:58:49.948Z,10.32
2022-09-12T02:59:49.995Z,10.32
2022-09-12T03:00:50.039Z,10.33
2022-09-12T03:01:50.146Z,10.35
2022-09-12T03:02:50.131Z,10.36
2022-09-12T03:03:50.173Z,10.38
2022-09-12T03:04:50.215Z,10.31
2022-09-12T03:05:50.261Z,10.29
2022-09-12T03:06:50.306Z,10.29
2022-09-12T03:07:50.356Z,10.29
2022-09-12T03:08:50.400Z,10.3
2022-09-12T03:09:50.438Z,10.3
2022-09-12T03:10:50.485Z,10.3
2022-09-12T03:11:50.538Z,10.29
2022-09-12T03:12:50.584Z,10.28
2022-09-12T03:13:50.625Z,10.28
2022-09-12T03:14:50.672Z,10.28
2022-09-12T03:15:50.720Z,10.29
2022-09-12T03:16:50.763Z,10.3
2022-09-12T03:17:50.805Z,10.29
2022-09-12T03:18:50.848Z,10.28
2022-09-12T03:19:50.887Z,10.25
2022-09-12T03:20:50.933Z,10.15
2022-09-12T03:21:50.981Z,10.14
2022-09-12T03:22:51.304Z,10.13
2022-09-12T03:23:51.068Z,10.14
2022-09-12T03:24:51.115Z,10.15
2022-09-12T03:25:51.154Z,10.17
2022-09-12T03:26:51.188Z,10.18
2022-09-12T03:27:51.236Z,10.09
2022-09-12T03:28:51.278Z,10.1
2022-09-12T03:29:51.321Z,10.09
2022-09-12T03:30:51.515Z,10.08
2022-09-12T03:31:51.418Z,10.07
2022-09-12T03:32:51.461Z,10.07
2022-09-12T03:33:51.516Z,10
2022-09-12T03:34:51.551Z,10
2022-09-12T03:35:51.598Z,10.01
2022-09-12T03:36:51.644Z,10.02
2022-09-12T03:37:51.690Z,10.02
2022-09-12T03:38:51.729Z,10.02
2022-09-12T03:39:51.821Z,10.03
2022-09-12T03:40:54.813Z,10.02
2022-09-12T03:41:51.857Z,10.02
2022-09-12T03:42:51.927Z,10.01
2022-09-12T03:43:51.949Z,10.01
2022-09-12T03:44:51.989Z,9.94
2022-09-12T03:45:52.071Z,9.94
2022-09-12T03:46:52.075Z,9.94
2022-09-12T03:47:52.121Z,9.94
2022-09-12T03:48:52.166Z,9.94
2022-09-12T03:49:52.213Z,9.95
2022-09-12T03:50:52.257Z,9.95
2022-09-12T03:51:52.305Z,9.96
2022-09-12T03:52:52.347Z,9.96
2022-09-12T03:53:52.396Z,9.97
2022-09-12T03:54:52.433Z,9.97
2022-09-12T03:55:52.478Z,9.96
2022-09-12T03:56:52.518Z,9.94
2022-09-12T03:57:52.565Z,9.87
2022-09-12T03:58:52.619Z,9.86
2022-09-12T03:59:52.658Z,9.86
2022-09-12T04:00:52.759Z,9.86
2022-09-12T04:01:52.820Z,9.86
2022-09-12T04:02:52.793Z,9.81
2022-09-12T04:03:52.835Z,9.89
2022-09-12T04:04:52.878Z,9.91
2022-09-12T04:05:52.918Z,9.93
2022-09-12T04:06:52.960Z,9.95
2022-09-12T04:07:53.005Z,9.96
2022-09-12T04:08:53.061Z,9.98
2022-09-12T04:09:53.087Z,9.98
2022-09-12T04:10:53.125Z,9.98
2022-09-12T04:11:53.170Z,9.97
2022-09-12T04:12:53.211Z,9.9
2022-09-12T04:13:53.252Z,9.88
2022-09-12T04:14:53.304Z,9.87
2022-09-12T04:15:53.353Z,9.86
2022-09-12T04:16:53.442Z,9.85
2022-09-12T04:17:53.430Z,9.84
2022-09-12T04:18:53.472Z,9.85
2022-09-12T04:19:53.524Z,9.85
2022-09-12T04:20:53.566Z,9.84
2022-09-12T04:21:53.608Z,9.84
2022-09-12T04:22:53.652Z,9.83
2022-09-12T04:23:53.692Z,9.83
2022-09-12T04:24:53.731Z,9.81
2022-09-12T04:25:53.794Z,9.74
2022-09-12T04:26:53.819Z,9.74
2022-09-12T04:27:53.862Z,9.74
2022-09-12T04:28:53.909Z,9.75
2022-09-12T04:29:53.951Z,9.75
2022-09-12T04:30:54.034Z,9.76
2022-09-12T04:31:54.041Z,9.76
2022-09-12T04:32:54.077Z,9.74
2022-09-12T04:33:54.122Z,9.67
2022-09-12T04:34:54.162Z,9.67
2022-09-12T04:35:54.203Z,9.66
2022-09-12T04:36:54.251Z,9.66
2022-09-12T04:37:54.290Z,9.64
2022-09-12T04:38:54.330Z,9.63
2022-09-12T04:39:54.413Z,9.65
2022-09-12T04:40:54.412Z,9.58
2022-09-12T04:41:54.452Z,9.58
2022-09-12T04:42:54.497Z,9.58
2022-09-12T04:43:54.543Z,9.58
2022-09-12T04:44:54.588Z,9.59
2022-09-12T04:45:54.683Z,9.6
2022-09-12T04:46:54.675Z,9.6
2022-09-12T04:47:54.719Z,9.61
2022-09-12T04:48:57.089Z,9.61
2022-09-12T04:49:54.810Z,9.6
2022-09-12T04:50:54.850Z,9.6
2022-09-12T04:51:54.897Z,9.53
2022-09-12T04:52:54.943Z,9.6
2022-09-12T04:53:54.985Z,9.61
2022-09-12T04:54:55.024Z,9.62
2022-09-12T04:55:55.072Z,9.62
2022-09-12T04:56:55.108Z,9.64
2022-09-12T04:57:55.152Z,9.64
2022-09-12T04:58:55.195Z,9.65
2022-09-12T04:59:55.237Z,9.65
2022-09-12T05:00:55.338Z,9.66
2022-09-12T05:01:55.364Z,9.67
2022-09-12T05:02:55.379Z,9.67
2022-09-12T05:03:55.422Z,9.68
2022-09-12T05:04:55.467Z,9.74
2022-09-12T05:05:56.554Z,9.74
2022-09-12T05:06:55.549Z,9.75
2022-09-12T05:07:55.593Z,9.75
2022-09-12T05:08:55.646Z,9.75
2022-09-12T05:09:55.697Z,9.74
2022-09-12T05:10:55.733Z,9.73
2022-09-12T05:12:04.582Z,9.72
2022-09-12T05:12:55.829Z,9.72
2022-09-12T05:13:55.863Z,9.71
2022-09-12T05:14:55.904Z,9.7
2022-09-12T05:15:55.946Z,9.7
2022-09-12T05:16:56.003Z,9.71
2022-09-12T05:17:56.029Z,9.72
2022-09-12T05:18:56.075Z,9.79
2022-09-12T05:19:56.120Z,9.79
2022-09-12T05:20:56.160Z,9.8
2022-09-12T05:21:56.208Z,9.81
2022-09-12T05:22:56.246Z,9.81
2022-09-12T05:23:56.288Z,9.81
2022-09-12T05:24:56.332Z,9.82
2022-09-12T05:25:56.368Z,9.82
2022-09-12T05:26:56.412Z,9.89
2022-09-12T05:27:56.451Z,9.89
2022-09-12T05:28:56.492Z,9.89
2022-09-12T05:29:56.540Z,9.89
2022-09-12T05:30:56.674Z,9.9
2022-09-12T05:31:56.654Z,9.97
2022-09-12T05:32:56.676Z,9.97
2022-09-12T05:33:56.720Z,9.98
2022-09-12T05:34:56.769Z,9.98
2022-09-12T05:35:56.817Z,9.99
2022-09-12T05:36:56.855Z,10.06
2022-09-12T05:37:56.904Z,10.06
2022-09-12T05:38:56.944Z,10.06
2022-09-12T05:39:57.018Z,10.06
2022-09-12T05:40:57.027Z,10.07
2022-09-12T05:41:57.066Z,10.07
2022-09-12T05:42:57.105Z,10.14
2022-09-12T05:43:57.144Z,10.15
2022-09-12T05:44:57.188Z,10.15
2022-09-12T05:45:57.280Z,10.16
2022-09-12T05:46:57.265Z,10.16
2022-09-12T05:47:57.311Z,10.23
2022-09-12T05:48:57.351Z,10.24
2022-09-12T05:49:57.518Z,10.24
2022-09-12T05:50:57.432Z,10.24
2022-09-12T05:51:57.477Z,10.32
2022-09-12T05:52:57.520Z,10.32
2022-09-12T05:53:57.574Z,10.39
2022-09-12T05:54:57.610Z,10.39
2022-09-12T05:55:57.653Z,10.39
2022-09-12T05:56:57.700Z,10.46
2022-09-12T05:57:57.748Z,10.46
2022-09-12T05:58:57.782Z,10.47
2022-09-12T05:59:57.828Z,10.54
2022-09-12T06:00:58.040Z,10.61
2022-09-12T06:01:58.012Z,10.61
2022-09-12T06:02:57.955Z,10.67
2022-09-12T06:03:57.999Z,10.68
2022-09-12T06:04:58.048Z,10.73
2022-09-12T06:05:58.089Z,10.79
2022-09-12T06:06:58.126Z,10.79
2022-09-12T06:07:58.169Z,10.78
2022-09-12T06:08:58.209Z,10.86
2022-09-12T06:09:58.250Z,10.86
2022-09-12T06:11:02.054Z,10.93
2022-09-12T06:11:58.335Z,10.95
2022-09-12T06:12:58.382Z,10.95
2022-09-12T06:13:58.425Z,11.04
2022-09-12T06:14:58.468Z,11.05
2022-09-12T06:15:58.517Z,11.15
2022-09-12T06:16:58.620Z,11.16
2022-09-12T06:17:58.602Z,11.26
2022-09-12T06:18:58.644Z,11.27
2022-09-12T06:19:58.682Z,11.26
2022-09-12T06:20:58.730Z,11.32
2022-09-12T06:21:58.773Z,11.32
2022-09-12T06:22:58.818Z,11.39
2022-09-12T06:23:58.866Z,11.43
2022-09-12T06:24:58.909Z,11.49
2022-09-12T06:25:58.955Z,11.5
2022-09-12T06:26:58.995Z,11.59
2022-09-12T06:27:59.034Z,11.6
2022-09-12T06:28:59.077Z,11.68
2022-09-12T06:29:59.117Z,11.71
2022-09-12T06:30:59.186Z,11.79
2022-09-12T06:31:59.204Z,11.78
2022-09-12T06:32:59.250Z,11.86
2022-09-12T06:33:59.295Z,11.95
2022-09-12T06:34:59.339Z,11.95
2022-09-12T06:35:59.381Z,12.01
2022-09-12T06:36:59.418Z,12.1
2022-09-12T06:37:59.458Z,12.17
2022-09-12T06:38:59.502Z,12.22
2022-09-12T06:39:59.594Z,12.27
2022-09-12T06:40:59.581Z,12.38
2022-09-12T06:41:59.621Z,12.43
2022-09-12T06:42:59.659Z,12.47
2022-09-12T06:43:59.696Z,12.52
2022-09-12T06:44:59.736Z,12.51
2022-09-12T06:45:59.831Z,12.55
2022-09-12T06:46:59.826Z,12.54
2022-09-12T06:47:59.869Z,12.59
2022-09-12T06:48:59.908Z,12.58
2022-09-12T06:49:59.954Z,12.66
2022-09-12T06:50:59.997Z,12.79
2022-09-12T06:52:00.034Z,12.96
2022-09-12T06:53:00.080Z,13.11
2022-09-12T06:54:00.115Z,13.39
2022-09-12T06:55:00.161Z,13.63
2022-09-12T06:56:00.198Z,13.78
2022-09-12T06:57:00.236Z,13.9
2022-09-12T06:58:00.270Z,13.95
2022-09-12T06:59:00.326Z,13.93
2022-09-12T07:00:00.360Z,13.87
2022-09-12T07:01:00.486Z,13.83
2022-09-12T07:02:00.514Z,13.75
2022-09-12T07:03:00.489Z,13.69
2022-09-12T07:04:00.525Z,13.68
2022-09-12T07:05:00.591Z,13.65
2022-09-12T07:06:00.613Z,13.59
2022-09-12T07:07:00.650Z,13.6
2022-09-12T07:08:00.698Z,13.62
2022-09-12T07:09:00.734Z,13.57
2022-09-12T07:10:00.779Z,13.58
2022-09-12T07:11:00.820Z,13.56
2022-09-12T07:12:00.865Z,13.52
2022-09-12T07:13:00.912Z,13.53
2022-09-12T07:14:00.956Z,13.53
2022-09-12T07:15:01.018Z,13.54
2022-09-12T07:16:01.039Z,13.5
2022-09-12T07:17:01.127Z,13.5
2022-09-12T07:18:01.127Z,13.53
2022-09-12T07:19:01.170Z,13.49
2022-09-12T07:20:01.206Z,13.5
2022-09-12T07:21:01.244Z,13.53
2022-09-12T07:22:01.280Z,13.47
2022-09-12T07:23:01.323Z,13.47
2022-09-12T07:24:01.371Z,13.47
2022-09-12T07:25:01.446Z,13.54
2022-09-12T07:26:01.462Z,13.61
2022-09-12T07:27:01.495Z,13.71
2022-09-12T07:28:01.537Z,13.75
2022-09-12T07:29:25.202Z,13.8
2022-09-12T07:30:01.638Z,13.81
2022-09-12T07:31:01.756Z,13.87
2022-09-12T07:32:01.699Z,13.86
2022-09-12T07:33:01.744Z,13.85
2022-09-12T07:34:01.786Z,13.91
2022-09-12T07:35:01.828Z,13.98
2022-09-12T07:36:01.869Z,13.97
2022-09-12T07:37:01.909Z,13.98
2022-09-12T07:38:01.948Z,13.95
2022-09-12T07:39:02.025Z,13.96
2022-09-12T07:40:02.157Z,13.96
2022-09-12T07:41:02.077Z,13.88
2022-09-12T07:42:02.129Z,13.9
2022-09-12T07:43:02.165Z,13.91
2022-09-12T07:44:02.236Z,13.92
2022-09-12T07:45:02.248Z,13.91
2022-09-12T07:46:02.346Z,13.91
2022-09-12T07:47:02.340Z,13.9
2022-09-12T07:48:02.374Z,13.92
2022-09-12T07:49:02.439Z,13.95
2022-09-12T07:50:02.458Z,13.95
2022-09-12T07:51:02.502Z,13.92
2022-09-12T07:52:02.543Z,13.9
2022-09-12T07:53:02.585Z,13.87
2022-09-12T07:54:02.628Z,13.87
2022-09-12T07:55:02.673Z,13.9
2022-09-12T07:56:02.718Z,13.91
2022-09-12T07:57:02.762Z,13.93
2022-09-12T07:58:02.808Z,13.93
2022-09-12T07:59:02.854Z,13.92
2022-09-12T08:00:02.890Z,13.93
2022-09-12T08:01:03.011Z,14.02
2022-09-12T08:02:03.019Z,14
2022-09-12T08:03:03.019Z,14
2022-09-12T08:04:03.057Z,14.03
2022-09-12T08:05:03.104Z,14.04
2022-09-12T08:06:03.151Z,14.08
2022-09-12T08:07:03.189Z,14.07
2022-09-12T08:08:03.239Z,14.07
2022-09-12T08:09:03.278Z,14.1
2022-09-12T08:10:03.313Z,14.13
2022-09-12T08:11:03.354Z,14.18
2022-09-12T08:12:03.398Z,14.12
2022-09-12T08:13:03.438Z,14.1
2022-09-12T08:14:03.481Z,14.08
2022-09-12T08:15:03.514Z,14.06
2022-09-12T08:16:03.610Z,14.05
2022-09-12T08:17:03.592Z,14.12
2022-09-12T08:18:03.637Z,14.09
2022-09-12T08:19:03.682Z,14.1
2022-09-12T08:20:03.726Z,14.08
2022-09-12T08:21:03.765Z,14.15
2022-09-12T08:22:03.805Z,14.13
2022-09-12T08:23:03.850Z,14.12
2022-09-12T08:24:03.915Z,14.09
2022-09-12T08:25:03.922Z,14.14
2022-09-12T08:26:06.065Z,14.14
2022-09-12T08:27:04.011Z,14.2
2022-09-12T08:28:04.051Z,14.19
2022-09-12T08:29:04.096Z,14.27
2022-09-12T08:30:04.136Z,14.23
2022-09-12T08:31:04.271Z,14.3
2022-09-12T08:32:04.206Z,14.31
2022-09-12T08:33:04.253Z,14.32
2022-09-12T08:34:04.291Z,14.36
2022-09-12T08:35:04.337Z,14.32
2022-09-12T08:36:04.376Z,14.34
2022-09-12T08:37:04.422Z,14.37
2022-09-12T08:38:04.465Z,14.34
2022-09-12T08:39:04.529Z,14.35
2022-09-12T08:40:04.561Z,14.4
2022-09-12T08:41:04.579Z,14.39
2022-09-12T08:42:04.647Z,14.42
2022-09-12T08:43:04.668Z,14.44
2022-09-12T08:44:04.710Z,14.55
2022-09-12T08:45:04.755Z,14.51
2022-09-12T08:46:04.824Z,14.55
2022-09-12T08:47:04.837Z,14.57
2022-09-12T08:48:04.879Z,14.59
2022-09-12T08:49:04.916Z,14.58
